createdAt,value
2022-08-04T00:00:31.208Z,1.83
2022-08-04T00:02:57.612Z,1.80
2022-08-04T00:05:23.980Z,1.70
2022-08-04T00:07:50.369Z,1.90
2022-08-04T00:10:16.745Z,1.60
2022-08-04T00:12:43.134Z,1.80
2022-08-04T00:15:09.521Z,1.60
2022-08-04T00:17:38.422Z,1.80
2022-08-04T00:20:02.323Z,1.63
2022-08-04T00:22:28.702Z,1.70
2022-08-04T00:24:55.084Z,1.67
2022-08-04T00:27:23.157Z,1.60
2022-08-04T00:29:47.863Z,1.70
2022-08-04T00:32:15.431Z,1.70
2022-08-04T00:34:40.645Z,1.70
2022-08-04T00:37:07.029Z,1.90
2022-08-04T00:39:33.520Z,2.00
2022-08-04T00:41:59.813Z,1.60
2022-08-04T00:44:26.221Z,1.70
2022-08-04T00:46:52.604Z,1.77
2022-08-04T00:49:18.987Z,1.80
2022-08-04T00:51:45.363Z,1.77
2022-08-04T00:54:11.739Z,1.80
2022-08-04T00:56:38.150Z,1.60
2022-08-04T00:59:04.536Z,1.80
2022-08-04T01:01:30.985Z,1.70
2022-08-04T01:03:57.303Z,1.67
2022-08-04T01:06:23.684Z,1.77
2022-08-04T01:08:50.095Z,1.90
2022-08-04T01:11:16.453Z,1.60
2022-08-04T01:13:42.851Z,1.73
2022-08-04T01:16:09.217Z,1.80
2022-08-04T01:18:35.625Z,1.70
2022-08-04T01:21:02.000Z,1.80
2022-08-04T01:23:28.379Z,1.70
2022-08-04T01:25:56.214Z,1.70
2022-08-04T01:28:21.160Z,2.00
2022-08-04T01:30:47.537Z,1.70
2022-08-04T01:33:13.919Z,2.00
2022-08-04T01:35:47.550Z,1.63
2022-08-04T01:38:18.221Z,1.80
2022-08-04T01:40:33.119Z,1.80
2022-08-04T01:42:59.499Z,1.67
2022-08-04T01:45:25.882Z,1.73
2022-08-04T01:47:53.247Z,1.57
2022-08-04T01:50:18.681Z,1.70
2022-08-04T01:52:50.317Z,1.90
2022-08-04T01:55:11.447Z,2.00
2022-08-04T01:57:39.481Z,1.90
2022-08-04T02:00:04.233Z,1.87
2022-08-04T02:02:30.947Z,1.77
2022-08-04T02:04:57.041Z,1.77
2022-08-04T02:07:23.678Z,1.70
2022-08-04T02:09:54.205Z,1.70
2022-08-04T02:12:16.557Z,1.70
2022-08-04T02:14:42.620Z,1.77
2022-08-04T02:17:08.982Z,1.70
2022-08-04T02:19:35.365Z,1.50
2022-08-04T02:22:01.763Z,1.50
2022-08-04T02:24:28.155Z,1.87
2022-08-04T02:26:55.490Z,1.70
2022-08-04T02:29:22.156Z,1.80
2022-08-04T02:31:47.378Z,1.60
2022-08-04T02:34:13.754Z,1.80
2022-08-04T02:36:40.142Z,1.80
2022-08-04T02:39:06.596Z,1.60
2022-08-04T02:41:32.916Z,1.67
2022-08-04T02:43:59.324Z,1.87
2022-08-04T02:46:25.714Z,1.70
2022-08-04T02:48:52.092Z,1.70
2022-08-04T02:51:18.474Z,1.77
2022-08-04T02:53:44.860Z,1.97
2022-08-04T02:56:11.337Z,1.70
2022-08-04T02:58:37.709Z,1.93
2022-08-04T03:01:04.231Z,1.63
2022-08-04T03:03:30.485Z,1.60
2022-08-04T03:06:00.947Z,1.50
2022-08-04T03:08:23.237Z,1.63
2022-08-04T03:10:49.630Z,1.90
2022-08-04T03:13:16.013Z,1.70
2022-08-04T03:15:42.395Z,1.80
2022-08-04T03:18:08.777Z,1.60
2022-08-04T03:20:35.162Z,1.80
2022-08-04T03:23:13.120Z,1.90
2022-08-04T03:25:27.927Z,1.83
2022-08-04T03:27:54.314Z,1.87
2022-08-04T03:30:20.830Z,1.67
2022-08-04T03:32:47.206Z,1.70
2022-08-04T03:35:13.685Z,1.57
2022-08-04T03:37:41.168Z,1.53
2022-08-04T03:40:10.872Z,1.70
2022-08-04T03:42:32.752Z,1.63
2022-08-04T03:44:59.188Z,1.80
2022-08-04T03:47:25.561Z,1.73
2022-08-04T03:49:51.951Z,1.80
2022-08-04T03:52:18.322Z,1.77
2022-08-04T03:54:44.721Z,2.00
2022-08-04T03:57:11.097Z,1.70
2022-08-04T03:59:37.516Z,1.70
2022-08-04T04:02:06.529Z,1.90
2022-08-04T04:04:30.335Z,1.80
2022-08-04T04:06:56.675Z,1.80
2022-08-04T04:09:23.063Z,2.00
2022-08-04T04:11:55.521Z,1.80
2022-08-04T04:14:15.878Z,1.60
2022-08-04T04:16:42.260Z,1.90
2022-08-04T04:19:08.675Z,1.80
2022-08-04T04:21:35.037Z,1.90
2022-08-04T04:24:01.414Z,1.80
2022-08-04T04:26:27.793Z,1.70
2022-08-04T04:28:54.206Z,1.87
2022-08-04T04:31:20.582Z,2.10
2022-08-04T04:33:46.975Z,1.70
2022-08-04T04:36:13.403Z,1.80
2022-08-04T04:38:39.798Z,1.83
2022-08-04T04:41:06.229Z,1.87
2022-08-04T04:43:50.742Z,1.70
2022-08-04T04:45:59.103Z,1.90
2022-08-04T04:48:25.528Z,2.10
2022-08-04T04:50:51.925Z,1.77
2022-08-04T04:53:18.310Z,1.70
2022-08-04T04:55:48.063Z,1.90
2022-08-04T04:58:11.099Z,1.77
2022-08-04T05:00:37.473Z,1.70
2022-08-04T05:03:08.694Z,1.90
2022-08-04T05:05:30.263Z,1.80
2022-08-04T05:07:56.654Z,2.07
2022-08-04T05:10:23.032Z,1.80
2022-08-04T05:14:35.309Z,1.60
2022-08-04T05:15:15.810Z,1.97
2022-08-04T05:17:42.298Z,1.80
2022-08-04T05:20:08.632Z,2.00
2022-08-04T05:22:35.022Z,2.00
2022-08-04T05:25:01.416Z,2.10
2022-08-04T05:27:27.797Z,1.83
2022-08-04T05:29:54.194Z,2.00
2022-08-04T05:32:20.579Z,2.00
2022-08-04T05:34:49.181Z,1.87
2022-08-04T05:37:15.597Z,1.90
2022-08-04T05:39:42.020Z,2.00
2022-08-04T05:42:08.375Z,2.13
2022-08-04T05:44:34.759Z,2.10
2022-08-04T05:47:01.270Z,2.10
2022-08-04T05:49:27.659Z,2.20
2022-08-04T05:51:54.040Z,1.80
2022-08-04T05:54:20.461Z,1.70
2022-08-04T05:56:46.931Z,2.00
2022-08-04T05:59:13.361Z,1.90
2022-08-04T06:01:55.635Z,2.30
2022-08-04T06:04:11.263Z,2.70
2022-08-04T06:06:32.532Z,2.00
2022-08-04T06:08:58.924Z,1.97
2022-08-04T06:11:25.312Z,2.03
2022-08-04T06:13:51.697Z,1.90
2022-08-04T06:16:29.911Z,2.07
2022-08-04T06:19:58.856Z,2.17
2022-08-04T06:21:16.064Z,2.10
2022-08-04T06:23:53.648Z,1.97
2022-08-04T06:26:06.135Z,2.20
2022-08-04T06:28:32.513Z,2.10
2022-08-04T06:30:58.920Z,2.07
2022-08-04T06:33:25.305Z,2.13
2022-08-04T06:35:51.696Z,2.03
2022-08-04T06:38:18.093Z,2.20
2022-08-04T06:40:44.477Z,2.10
2022-08-04T06:43:10.873Z,2.60
2022-08-04T06:45:37.269Z,1.90
2022-08-04T06:48:03.656Z,2.00
2022-08-04T06:51:32.065Z,2.20
2022-08-04T06:52:56.416Z,1.90
2022-08-04T06:55:24.494Z,2.03
2022-08-04T06:57:49.188Z,2.20
2022-08-04T07:00:15.642Z,1.97
2022-08-04T07:02:42.055Z,2.00
2022-08-04T07:05:08.439Z,2.00
2022-08-04T07:07:57.519Z,1.93
2022-08-04T07:10:01.315Z,2.63
2022-08-04T07:12:27.700Z,2.20
2022-08-04T07:14:54.129Z,2.20
2022-08-04T07:17:20.618Z,2.27
2022-08-04T07:19:46.898Z,1.83
2022-08-04T07:22:25.442Z,2.43
2022-08-04T07:24:41.127Z,2.30
2022-08-04T07:27:06.337Z,1.93
2022-08-04T07:29:33.779Z,2.30
2022-08-04T07:31:59.150Z,2.40
2022-08-04T07:34:25.538Z,2.17
2022-08-04T07:36:55.011Z,2.13
2022-08-04T07:39:27.246Z,2.00
2022-08-04T07:41:48.859Z,2.33
2022-08-04T07:44:11.178Z,2.20
2022-08-04T07:46:37.654Z,2.40
2022-08-04T07:49:07.344Z,2.80
2022-08-04T07:51:33.745Z,2.47
2022-08-04T07:54:00.132Z,2.20
2022-08-04T07:56:26.653Z,2.33
2022-08-04T07:58:52.910Z,2.30
2022-08-04T08:01:19.343Z,2.50
2022-08-04T08:03:45.848Z,2.10
2022-08-04T08:06:22.546Z,2.33
2022-08-04T08:08:38.562Z,2.30
2022-08-04T08:11:04.968Z,2.60
2022-08-04T08:13:33.272Z,2.30
2022-08-04T08:15:57.761Z,2.00
2022-08-04T08:18:24.211Z,2.37
2022-08-04T08:20:50.516Z,2.03
2022-08-04T08:23:16.913Z,2.17
2022-08-04T08:25:43.304Z,2.37
2022-08-04T08:28:09.761Z,2.13
2022-08-04T08:30:36.125Z,2.37
2022-08-04T08:33:03.172Z,2.10
2022-08-04T08:35:28.958Z,2.17
2022-08-04T08:37:55.363Z,2.27
2022-08-04T08:40:40.174Z,2.23
2022-08-04T08:42:48.147Z,2.73
2022-08-04T08:45:17.982Z,2.67
2022-08-04T08:48:05.338Z,2.03
2022-08-04T08:50:07.409Z,2.47
2022-08-04T08:53:00.799Z,2.20
2022-08-04T08:55:00.240Z,2.20
2022-08-04T08:57:26.586Z,2.20
2022-08-04T08:59:52.963Z,2.20
2022-08-04T09:02:19.365Z,2.20
2022-08-04T09:04:45.906Z,2.10
2022-08-04T09:07:12.154Z,2.10
2022-08-04T09:09:38.524Z,2.37
2022-08-04T09:12:04.922Z,2.10
2022-08-04T09:14:31.298Z,2.40
2022-08-04T09:16:57.688Z,2.50
2022-08-04T09:19:38.744Z,2.20
2022-08-04T09:21:50.479Z,2.53
2022-08-04T09:24:35.723Z,2.60
2022-08-04T09:26:43.276Z,2.40
2022-08-04T09:29:09.674Z,2.03
2022-08-04T09:31:48.758Z,2.50
2022-08-04T09:34:03.174Z,2.43
2022-08-04T09:36:29.587Z,2.20
2022-08-04T09:38:55.964Z,2.60
2022-08-04T09:41:48.390Z,2.10
2022-08-04T09:43:58.874Z,2.50
2022-08-04T09:46:16.573Z,2.37
2022-08-04T09:48:41.531Z,2.67
2022-08-04T09:51:07.923Z,1.80
2022-08-04T09:53:34.311Z,2.17
2022-08-04T09:56:03.315Z,2.20
2022-08-04T09:58:27.106Z,2.10
2022-08-04T10:00:53.557Z,2.10
2022-08-04T10:03:20.571Z,2.20
2022-08-04T10:05:46.355Z,2.20
2022-08-04T10:08:16.350Z,2.00
2022-08-04T10:10:39.151Z,2.10
2022-08-04T10:13:05.538Z,2.33
2022-08-04T10:15:31.933Z,2.30
2022-08-04T10:17:58.320Z,2.13
2022-08-04T10:20:35.930Z,2.10
2022-08-04T10:23:10.527Z,2.23
2022-08-04T10:26:02.723Z,2.30
2022-08-04T10:27:43.893Z,2.20
2022-08-04T10:30:10.275Z,2.17
2022-08-04T10:32:39.971Z,2.10
2022-08-04T10:35:03.078Z,2.30
2022-08-04T10:37:55.245Z,2.30
2022-08-04T10:39:55.902Z,2.50
2022-08-04T10:42:22.292Z,2.00
2022-08-04T10:44:48.697Z,2.20
2022-08-04T10:47:15.083Z,2.30
2022-08-04T10:49:41.494Z,2.40
2022-08-04T10:52:07.860Z,2.77
2022-08-04T10:54:35.215Z,2.20
2022-08-04T10:57:01.625Z,2.60
2022-08-04T10:59:28.027Z,2.70
2022-08-04T11:02:03.228Z,2.33
2022-08-04T11:04:27.552Z,2.50
2022-08-04T11:06:47.441Z,2.50
2022-08-04T11:09:15.002Z,2.60
2022-08-04T11:12:00.324Z,2.87
2022-08-04T11:14:06.647Z,2.70
2022-08-04T11:16:33.072Z,2.43
2022-08-04T11:18:59.518Z,2.50
2022-08-04T11:21:25.902Z,2.50
2022-08-04T11:23:52.348Z,2.27
2022-08-04T11:26:18.737Z,2.23
2022-08-04T11:28:45.124Z,2.83
2022-08-04T11:31:11.520Z,2.60
2022-08-04T11:33:37.904Z,2.00
2022-08-04T11:36:04.295Z,2.47
2022-08-04T11:38:32.410Z,2.47
2022-08-04T11:41:02.700Z,2.50
2022-08-04T11:44:02.417Z,2.37
2022-08-04T11:45:49.916Z,2.50
2022-08-04T11:48:16.297Z,2.20
2022-08-04T11:50:42.681Z,2.13
2022-08-04T11:53:09.057Z,2.50
2022-08-04T11:56:07.401Z,1.97
2022-08-04T11:58:02.907Z,2.33
2022-08-04T12:00:28.281Z,2.50
2022-08-04T12:02:54.678Z,2.40
2022-08-04T12:05:32.288Z,2.20
2022-08-04T12:07:47.882Z,2.13
2022-08-04T12:10:13.885Z,2.20
2022-08-04T12:12:40.313Z,1.93
2022-08-04T12:15:06.697Z,2.33
2022-08-04T12:17:51.985Z,2.30
2022-08-04T12:20:05.298Z,2.10
2022-08-04T12:22:28.348Z,2.37
2022-08-04T12:24:52.253Z,2.33
2022-08-04T12:27:18.671Z,2.20
2022-08-04T12:30:54.178Z,2.13
2022-08-04T12:32:11.469Z,2.27
2022-08-04T12:34:37.856Z,2.30
2022-08-04T12:37:04.252Z,2.47
2022-08-04T12:39:30.710Z,2.03
2022-08-04T12:41:57.022Z,2.13
2022-08-04T12:44:36.193Z,2.10
2022-08-04T12:46:49.820Z,2.33
2022-08-04T12:49:16.266Z,2.10
2022-08-04T12:52:07.796Z,3.00
2022-08-04T12:54:09.039Z,2.30
2022-08-04T12:56:35.450Z,2.20
2022-08-04T12:59:01.835Z,2.00
2022-08-04T13:02:10.205Z,2.30
2022-08-04T13:03:54.682Z,2.10
2022-08-04T13:06:23.443Z,2.40
2022-08-04T13:08:47.555Z,2.37
2022-08-04T13:11:13.948Z,2.20
2022-08-04T13:13:40.344Z,2.10
2022-08-04T13:16:08.363Z,2.23
2022-08-04T13:18:33.127Z,1.90
2022-08-04T13:20:59.615Z,2.13
2022-08-04T13:23:26.012Z,2.03
2022-08-04T13:26:44.452Z,2.63
2022-08-04T13:28:18.819Z,2.23
2022-08-04T13:30:45.209Z,2.20
2022-08-04T13:33:11.606Z,2.20
2022-08-04T13:35:55.217Z,2.00
2022-08-04T13:38:04.384Z,2.07
2022-08-04T13:40:31.189Z,2.20
2022-08-04T13:42:57.583Z,2.40
2022-08-04T13:45:24.028Z,2.30
2022-08-04T13:47:50.408Z,2.40
2022-08-04T13:50:16.789Z,2.20
2022-08-04T13:52:43.259Z,2.30
2022-08-04T13:55:09.634Z,2.37
2022-08-04T13:57:36.019Z,2.20
2022-08-04T14:00:02.502Z,2.57
2022-08-04T14:02:28.797Z,2.40
2022-08-04T14:04:55.213Z,2.10
2022-08-04T14:07:21.658Z,2.20
2022-08-04T14:10:02.957Z,2.30
2022-08-04T14:12:37.663Z,2.17
2022-08-04T14:14:40.885Z,2.17
2022-08-04T14:17:07.394Z,1.97
2022-08-04T14:19:36.370Z,2.03
2022-08-04T14:22:00.167Z,2.20
2022-08-04T14:24:26.540Z,2.37
2022-08-04T14:26:52.935Z,2.30
2022-08-04T14:29:26.255Z,2.00
2022-08-04T14:31:46.674Z,2.13
2022-08-04T14:34:18.049Z,2.13
2022-08-04T14:36:38.607Z,2.13
2022-08-04T14:39:05.135Z,2.17
2022-08-04T14:41:31.714Z,2.10
2022-08-04T14:43:58.124Z,2.00
2022-08-04T14:46:24.504Z,2.30
2022-08-04T14:48:51.177Z,2.30
2022-08-04T14:51:17.283Z,2.33
2022-08-04T14:53:43.673Z,2.07
2022-08-04T14:56:24.873Z,2.30
2022-08-04T14:58:39.466Z,2.47
2022-08-04T15:01:02.849Z,1.90
2022-08-04T15:03:29.233Z,1.90
2022-08-04T15:06:05.163Z,2.20
2022-08-04T15:08:22.000Z,2.30
2022-08-04T15:10:48.382Z,2.20
2022-08-04T15:13:14.770Z,2.50
2022-08-04T15:15:41.152Z,2.37
2022-08-04T15:18:07.533Z,2.50
2022-08-04T15:20:33.911Z,2.10
2022-08-04T15:23:00.299Z,2.20
2022-08-04T15:25:26.796Z,2.20
2022-08-04T15:27:53.180Z,2.30
2022-08-04T15:30:19.562Z,2.50
2022-08-04T15:32:47.363Z,2.70
2022-08-04T15:35:12.712Z,2.20
2022-08-04T15:37:38.802Z,1.70
2022-08-04T15:40:05.312Z,2.17
2022-08-04T15:42:31.681Z,1.90
2022-08-04T15:44:58.504Z,2.10
2022-08-04T15:47:24.471Z,1.90
2022-08-04T15:49:50.890Z,2.20
2022-08-04T15:52:22.961Z,2.60
2022-08-04T15:54:52.813Z,2.40
2022-08-04T15:57:10.135Z,2.17
2022-08-04T15:59:36.559Z,2.20
2022-08-04T16:02:10.932Z,2.23
2022-08-04T16:04:29.327Z,2.00
2022-08-04T16:06:57.118Z,2.30
2022-08-04T16:09:22.111Z,1.83
2022-08-04T16:11:48.500Z,2.00
2022-08-04T16:14:14.876Z,2.20
2022-08-04T16:16:41.257Z,2.00
2022-08-04T16:19:07.635Z,2.00
2022-08-04T16:21:34.053Z,2.10
2022-08-04T16:24:05.771Z,2.20
2022-08-04T16:26:30.586Z,1.83
2022-08-04T16:28:53.218Z,2.30
2022-08-04T16:31:19.598Z,2.10
2022-08-04T16:33:45.985Z,2.00
2022-08-04T16:36:12.364Z,2.20
2022-08-04T16:38:38.808Z,2.13
2022-08-04T16:41:05.185Z,2.27
2022-08-04T16:43:31.571Z,2.30
2022-08-04T16:45:57.951Z,2.33
2022-08-04T16:48:27.068Z,2.27
2022-08-04T16:50:50.711Z,2.20
2022-08-04T16:53:53.316Z,2.07
2022-08-04T16:55:43.499Z,2.33
2022-08-04T16:58:09.887Z,2.07
2022-08-04T17:00:36.292Z,2.20
2022-08-04T17:03:02.679Z,1.90
2022-08-04T17:05:39.534Z,2.47
2022-08-04T17:08:19.819Z,2.10
2022-08-04T17:10:21.821Z,2.17
2022-08-04T17:12:48.201Z,2.40
2022-08-04T17:15:14.577Z,2.07
2022-08-04T17:17:59.178Z,2.57
2022-08-04T17:20:07.408Z,2.20
2022-08-04T17:22:34.155Z,2.40
2022-08-04T17:25:00.537Z,2.23
2022-08-04T17:28:08.719Z,2.30
2022-08-04T17:29:53.317Z,2.27
2022-08-04T17:32:19.943Z,2.00
2022-08-04T17:34:46.229Z,2.30
2022-08-04T17:37:41.038Z,2.40
2022-08-04T17:39:39.016Z,2.30
2022-08-04T17:42:05.392Z,2.23
2022-08-04T17:44:31.778Z,1.80
2022-08-04T17:46:58.297Z,2.13
2022-08-04T17:49:24.827Z,2.10
2022-08-04T17:52:05.143Z,2.40
2022-08-04T17:54:17.614Z,2.37
2022-08-04T17:56:52.096Z,2.10
2022-08-04T17:59:10.413Z,2.13
2022-08-04T18:01:36.798Z,2.10
2022-08-04T18:04:03.187Z,2.27
2022-08-04T18:06:29.580Z,2.00
2022-08-04T18:08:57.859Z,2.27
2022-08-04T18:11:22.461Z,2.27
2022-08-04T18:13:48.782Z,2.13
2022-08-04T18:16:23.004Z,2.00
2022-08-04T18:18:41.687Z,2.20
2022-08-04T18:21:08.188Z,2.30
2022-08-04T18:23:34.588Z,2.10
2022-08-04T18:26:02.105Z,2.10
2022-08-04T18:28:27.394Z,2.07
2022-08-04T18:30:55.693Z,2.10
2022-08-04T18:33:39.750Z,2.10
2022-08-04T18:36:33.611Z,2.20
2022-08-04T18:38:23.420Z,2.27
2022-08-04T18:40:53.060Z,2.03
2022-08-04T18:43:05.746Z,1.97
2022-08-04T18:45:33.911Z,2.20
2022-08-04T18:47:59.586Z,2.43
2022-08-04T18:50:40.214Z,2.07
2022-08-04T18:52:53.178Z,2.40
2022-08-04T18:55:55.398Z,2.00
2022-08-04T18:58:00.683Z,2.30
2022-08-04T19:00:10.541Z,2.27
2022-08-04T19:02:36.961Z,2.20
2022-08-04T19:05:03.374Z,2.20
2022-08-04T19:07:30.688Z,2.30
2022-08-04T19:09:58.025Z,2.10
2022-08-04T19:12:26.727Z,2.10
2022-08-04T19:14:54.892Z,2.23
2022-08-04T19:17:15.341Z,1.93
2022-08-04T19:19:47.936Z,2.40
2022-08-04T19:22:08.299Z,2.17
2022-08-04T19:24:35.341Z,1.90
2022-08-04T19:27:01.001Z,2.20
2022-08-04T19:29:37.245Z,2.17
2022-08-04T19:31:53.774Z,2.30
2022-08-04T19:34:33.234Z,2.00
2022-08-04T19:36:46.548Z,2.40
2022-08-04T19:39:12.977Z,2.17
2022-08-04T19:42:05.862Z,2.30
2022-08-04T19:44:05.727Z,2.20
2022-08-04T19:46:32.139Z,2.10
2022-08-04T19:49:00.085Z,2.20
2022-08-04T19:51:25.043Z,2.17
2022-08-04T19:53:54.789Z,2.13
2022-08-04T19:56:17.793Z,2.37
2022-08-04T19:58:47.504Z,2.43
2022-08-04T20:01:31.323Z,2.40
2022-08-04T20:04:09.006Z,2.30
2022-08-04T20:06:03.537Z,2.23
2022-08-04T20:08:29.919Z,2.37
2022-08-04T20:10:56.324Z,2.50
2022-08-04T20:13:22.735Z,2.20
2022-08-04T20:20:41.946Z,2.30
2022-08-04T20:23:08.301Z,2.50
2022-08-04T20:25:36.573Z,2.20
2022-08-04T20:28:01.294Z,2.27
2022-08-04T20:30:28.468Z,2.10
2022-08-04T20:32:53.867Z,2.13
2022-08-04T20:35:21.958Z,2.37
2022-08-04T20:38:00.462Z,2.17
2022-08-04T20:40:13.058Z,2.33
2022-08-04T20:42:39.474Z,2.13
2022-08-04T20:45:05.856Z,2.17
2022-08-04T20:47:35.857Z,2.20
2022-08-04T20:49:58.689Z,2.30
2022-08-04T20:52:25.182Z,2.50
2022-08-04T20:54:56.350Z,2.33
2022-08-04T20:57:17.965Z,2.13
2022-08-04T20:59:50.336Z,2.30
2022-08-04T21:02:16.266Z,2.10
2022-08-04T21:04:42.025Z,2.30
2022-08-04T21:07:03.543Z,2.20
2022-08-04T21:09:38.162Z,2.43
2022-08-04T21:11:56.344Z,2.10
2022-08-04T21:14:22.730Z,2.20
2022-08-04T21:16:54.905Z,2.20
2022-08-04T21:19:15.539Z,2.13
2022-08-04T21:21:42.247Z,1.90
2022-08-04T21:24:08.348Z,2.50
2022-08-04T21:26:34.746Z,2.20
2022-08-04T21:29:01.173Z,2.10
2022-08-04T21:31:27.588Z,2.10
2022-08-04T21:33:53.975Z,2.27
2022-08-04T21:36:20.470Z,2.10
2022-08-04T21:38:51.522Z,2.47
2022-08-04T21:41:20.193Z,2.40
2022-08-04T21:43:43.182Z,2.20
2022-08-04T21:46:06.102Z,1.90
2022-08-04T21:48:32.538Z,2.20
2022-08-04T21:50:59.071Z,2.50
2022-08-04T21:56:05.598Z,2.00
2022-08-04T21:58:18.487Z,2.13
2022-08-04T22:00:44.911Z,2.10
2022-08-04T22:03:23.271Z,2.20
2022-08-04T22:05:37.636Z,2.30
2022-08-04T22:08:04.023Z,2.40
2022-08-04T22:10:32.756Z,2.20
2022-08-04T22:12:56.815Z,1.90
2022-08-04T22:16:03.717Z,2.27
2022-08-04T22:17:49.711Z,2.37
2022-08-04T22:20:27.228Z,2.00
2022-08-04T22:22:42.532Z,2.40
2022-08-04T22:27:35.584Z,2.10
2022-08-04T22:30:02.021Z,2.20
2022-08-04T22:32:28.546Z,2.30
2022-08-04T22:34:55.089Z,2.20
2022-08-04T22:37:35.542Z,2.13
2022-08-04T22:39:56.149Z,2.20
2022-08-04T22:42:14.384Z,2.20
2022-08-04T22:44:40.815Z,2.10
2022-08-04T22:47:07.218Z,2.50
2022-08-04T22:49:35.951Z,2.10
2022-08-04T22:52:03.011Z,2.00
2022-08-04T22:54:31.718Z,2.10
2022-08-04T22:56:55.341Z,2.23
2022-08-04T22:59:21.740Z,1.97
2022-08-04T23:01:58.946Z,2.20
2022-08-04T23:04:14.641Z,2.30
2022-08-04T23:06:41.080Z,2.33
2022-08-04T23:09:07.485Z,2.30
2022-08-04T23:11:35.187Z,2.40
2022-08-04T23:14:00.473Z,2.33
2022-08-04T23:16:27.111Z,2.27
2022-08-04T23:18:53.514Z,2.30
2022-08-04T23:21:24.682Z,2.20
2022-08-04T23:23:55.624Z,2.20
2022-08-04T23:26:12.846Z,2.63
2022-08-04T23:28:39.297Z,2.20
2022-08-04T23:31:05.714Z,2.23
2022-08-04T23:33:51.538Z,2.10
2022-08-04T23:35:58.581Z,2.13
2022-08-04T23:38:31.048Z,2.30
2022-08-04T23:40:53.440Z,2.30
2022-08-04T23:43:18.258Z,2.17
2022-08-04T23:46:06.542Z,2.10
2022-08-04T23:48:16.670Z,2.30
2022-08-04T23:50:37.180Z,2.53
2022-08-04T23:53:03.614Z,2.20
2022-08-04T23:55:31.969Z,2.30
2022-08-04T23:58:05.997Z,2.37
